Time;durP1;ratioP1;P1;durP2;ratioP2;P2;SDS_P1;SDS_P2;PMS_P1;PMS_P2;Temp;Humidity;BMP_temperature;BMP_pressure;BME280_temperature;BME280_humidity;BME280_pressure;Samples;Min_cycle;Max_cycle;Signal;HPM_P1;HPM_P2
2023/05/23 00:00:57;;;;;;;7.70;4.00;;;;;;;10.92;74.44;100340.56;105627;1256;83066;-46
2023/05/23 00:03:25;;;;;;;8.60;5.10;;;;;;;10.90;74.52;100338.39;105643;1257;72195;-46
2023/05/23 00:05:55;;;;;;;6.80;4.60;;;;;;;10.89;74.46;100335.43;105699;1255;70005;-46
2023/05/23 00:08:24;;;;;;;8.60;4.80;;;;;;;10.87;74.55;100334.80;105676;1251;69906;-46
2023/05/23 00:10:52;;;;;;;8.10;4.50;;;;;;;10.83;74.38;100331.66;105671;1251;73367;-46
2023/05/23 00:13:20;;;;;;;7.20;4.70;;;;;;;10.78;74.74;100328.90;105605;1256;83550;-45
2023/05/23 00:15:49;;;;;;;10.20;5.10;;;;;;;10.77;74.98;100329.13;105617;1251;71799;-46
2023/05/23 00:18:17;;;;;;;6.20;4.40;;;;;;;10.76;75.10;100327.05;105674;1256;70059;-46
2023/05/23 00:20:46;;;;;;;6.90;4.60;;;;;;;10.73;75.03;100324.36;105720;1256;69953;-47
2023/05/23 00:23:17;;;;;;;7.60;4.60;;;;;;;10.71;75.10;100323.05;105673;1251;74734;-46
2023/05/23 00:25:51;;;;;;;5.80;4.60;;;;;;;10.69;75.38;100323.66;105657;1251;81250;-46
2023/05/23 00:28:21;;;;;;;8.50;4.80;;;;;;;10.66;75.68;100321.29;105635;1256;73519;-46
2023/05/23 00:30:49;;;;;;;8.60;4.90;;;;;;;10.65;75.89;100317.84;105651;1255;69947;-46
2023/05/23 00:33:20;;;;;;;7.50;4.70;;;;;;;10.64;75.93;100317.20;105537;1251;70002;-46
2023/05/23 00:35:49;;;;;;;6.50;4.60;;;;;;;10.63;76.02;100317.21;105565;1251;74601;-46
2023/05/23 00:38:18;;;;;;;4.80;4.20;;;;;;;10.61;75.90;100318.02;105560;1256;81463;-46
2023/05/23 00:40:47;;;;;;;6.60;4.80;;;;;;;10.59;76.07;100319.48;105687;1255;73443;-47
2023/05/23 00:43:15;;;;;;;7.30;5.10;;;;;;;10.58;76.28;100324.27;105567;1254;69992;-48
2023/05/23 00:45:43;;;;;;;7.90;5.00;;;;;;;10.57;76.55;100322.70;105612;1251;70079;-46
2023/05/23 00:48:11;;;;;;;6.50;4.60;;;;;;;10.59;76.82;100324.03;105571;1251;73035;-47
2023/05/23 00:50:40;;;;;;;6.10;4.60;;;;;;;10.59;76.69;100324.39;105611;1256;83070;-47
2023/05/23 00:53:08;;;;;;;7.20;5.20;;;;;;;10.60;76.99;100326.95;105593;1257;71224;-47
2023/05/23 00:55:38;;;;;;;7.80;5.40;;;;;;;10.62;76.98;100324.63;105595;1256;69925;-47
2023/05/23 00:58:06;;;;;;;7.10;4.90;;;;;;;10.64;77.03;100323.48;105656;1251;69826;-46
2023/05/23 01:00:37;;;;;;;7.60;5.50;;;;;;;10.65;77.23;100322.20;105573;1251;72825;-46
2023/05/23 01:03:05;;;;;;;8.00;5.10;;;;;;;10.66;77.31;100324.30;105677;1251;82515;-46
2023/05/23 01:05:33;;;;;;;8.70;5.30;;;;;;;10.66;77.15;100323.05;105620;1251;71415;-47
2023/05/23 01:08:02;;;;;;;8.60;5.00;;;;;;;10.68;77.49;100323.35;105517;1257;69946;-47
2023/05/23 01:10:30;;;;;;;8.00;5.00;;;;;;;10.67;77.40;100322.52;105590;1257;69969;-45
2023/05/23 01:13:44;;;;;;;8.20;4.90;;;;;;;10.66;77.60;100319.73;105653;1257;71850;-47
2023/05/23 01:16:17;;;;;;;6.40;4.80;;;;;;;10.67;77.46;100316.38;105399;1257;83627;-47
2023/05/23 01:19:01;;;;;;;6.20;5.10;;;;;;;10.67;77.55;100315.52;105659;1256;72889;-47
2023/05/23 01:21:30;;;;;;;7.60;5.10;;;;;;;10.67;77.77;100319.88;105634;1256;69982;-46
2023/05/23 01:24:26;;;;;;;5.30;4.80;;;;;;;10.65;77.97;100318.04;105678;1251;69912;-46
2023/05/23 01:27:08;;;;;;;5.20;4.50;;;;;;;10.65;77.95;100316.27;105611;1251;74820;-47
2023/05/23 01:29:41;;;;;;;6.40;4.90;;;;;;;10.64;78.11;100313.36;105705;1251;83829;-47
2023/05/23 01:32:11;;;;;;;10.40;4.90;;;;;;;10.61;78.17;100314.35;105703;1255;72754;-46
2023/05/23 01:34:40;;;;;;;6.60;5.10;;;;;;;10.57;78.29;100314.31;105638;1251;69975;-48
2023/05/23 01:37:09;;;;;;;11.30;5.40;;;;;;;10.56;78.06;100310.86;105628;1257;69838;-46
2023/05/23 01:39:38;;;;;;;9.90;5.10;;;;;;;10.54;78.21;100305.35;105658;1256;75290;-46
2023/05/23 01:42:07;;;;;;;8.50;5.10;;;;;;;10.51;78.03;100303.89;105689;1251;83343;-47
2023/05/23 01:44:36;;;;;;;10.40;5.30;;;;;;;10.47;78.06;100302.83;105608;1256;73061;-46
2023/05/23 01:47:06;;;;;;;6.50;4.90;;;;;;;10.45;78.13;100298.34;105693;1251;69886;-47
2023/05/23 01:49:35;;;;;;;9.40;5.10;;;;;;;10.42;78.08;100292.89;105621;1251;69874;-46
2023/05/23 01:52:04;;;;;;;8.50;5.10;;;;;;;10.40;78.31;100288.06;105656;1257;74946;-46
2023/05/23 01:54:34;;;;;;;8.60;5.40;;;;;;;10.40;78.47;100289.31;105581;1261;83465;-46
2023/05/23 01:57:04;;;;;;;6.60;4.80;;;;;;;10.39;78.63;100287.08;105698;1256;72692;-46
2023/05/23 01:59:32;;;;;;;8.80;5.10;;;;;;;10.38;78.56;100284.10;105504;1257;70444;-46
2023/05/23 02:02:00;;;;;;;6.20;5.10;;;;;;;10.36;78.56;100283.16;105608;1251;69871;-46
2023/05/23 02:04:29;;;;;;;11.30;5.20;;;;;;;10.34;78.98;100279.93;105638;1256;73772;-47
2023/05/23 02:06:58;;;;;;;7.10;5.00;;;;;;;10.35;78.98;100276.54;105685;1256;83529;-47
2023/05/23 02:09:27;;;;;;;7.20;5.20;;;;;;;10.35;79.13;100272.54;105646;1251;73329;-47
2023/05/23 02:11:55;;;;;;;6.90;5.10;;;;;;;10.32;79.27;100270.18;105519;1257;69934;-46
2023/05/23 02:14:25;;;;;;;6.20;5.00;;;;;;;10.32;79.33;100270.39;105516;1257;69861;-46
2023/05/23 02:16:53;;;;;;;8.20;5.50;;;;;;;10.30;79.14;100271.17;105651;1257;74621;-46
2023/05/23 02:19:22;;;;;;;5.90;4.70;;;;;;;10.27;79.30;100271.42;105619;1256;83421;-46
2023/05/23 02:21:51;;;;;;;7.20;5.00;;;;;;;10.23;79.36;100270.70;105598;1256;73158;-46
2023/05/23 02:24:19;;;;;;;7.30;4.80;;;;;;;10.21;79.29;100268.52;105647;1256;69937;-47
2023/05/23 02:26:47;;;;;;;6.20;5.30;;;;;;;10.20;79.38;100265.58;105693;1257;69995;-47
2023/05/23 02:29:17;;;;;;;7.70;5.60;;;;;;;10.21;79.44;100260.30;105695;1251;74573;-45
2023/05/23 02:31:45;;;;;;;9.00;5.20;;;;;;;10.19;79.56;100255.80;105686;1251;83427;-47
2023/05/23 02:34:14;;;;;;;6.50;5.40;;;;;;;10.18;79.38;100255.51;105551;1251;71727;-46
2023/05/23 02:36:44;;;;;;;10.30;5.80;;;;;;;10.15;79.48;100252.48;105634;1256;69922;-46
2023/05/23 02:39:12;;;;;;;6.70;4.90;;;;;;;10.15;79.43;100250.73;105563;1257;70020;-46
2023/05/23 02:41:40;;;;;;;7.70;5.20;;;;;;;10.18;79.86;100250.44;105649;1256;75298;-47
2023/05/23 02:44:09;;;;;;;6.30;4.80;;;;;;;10.19;79.89;100251.44;105586;1257;81776;-46
2023/05/23 02:46:37;;;;;;;8.00;5.50;;;;;;;10.19;79.84;100249.89;105592;1256;72723;-47
2023/05/23 02:49:05;;;;;;;7.10;5.20;;;;;;;10.18;80.14;100247.47;105563;1251;70021;-46
2023/05/23 02:51:34;;;;;;;6.50;5.30;;;;;;;10.17;80.19;100246.46;105519;1257;70078;-46
2023/05/23 02:54:03;;;;;;;8.50;5.30;;;;;;;10.18;80.45;100239.98;105635;1257;73922;-46
2023/05/23 02:56:32;;;;;;;7.80;5.00;;;;;;;10.18;80.38;100239.45;105648;1251;83449;-46
2023/05/23 02:59:01;;;;;;;9.20;5.10;;;;;;;10.17;80.14;100237.74;105572;1255;72448;-46
2023/05/23 03:01:30;;;;;;;6.70;5.00;;;;;;;10.15;80.12;100236.97;105601;1255;69925;-46
2023/05/23 03:03:58;;;;;;;7.90;5.30;;;;;;;10.13;80.14;100234.21;105591;1256;69990;-46
2023/05/23 03:06:27;;;;;;;6.30;5.30;;;;;;;10.13;80.24;100227.23;105566;1256;74867;-46
2023/05/23 03:08:56;;;;;;;8.50;5.50;;;;;;;10.11;80.37;100224.86;105672;1256;83255;-45
2023/05/23 03:11:24;;;;;;;9.10;5.20;;;;;;;10.13;80.71;100221.85;105641;1256;73870;-47
2023/05/23 03:13:53;;;;;;;7.10;4.90;;;;;;;10.14;80.60;100217.96;105693;1254;70217;-45
2023/05/23 03:16:24;;;;;;;8.30;5.40;;;;;;;10.14;80.91;100218.64;105689;1252;69967;-46
2023/05/23 03:18:54;;;;;;;7.40;5.60;;;;;;;10.15;80.88;100220.17;105605;1251;74664;-46
2023/05/23 03:21:22;;;;;;;8.50;5.70;;;;;;;10.18;81.09;100222.51;105509;1256;83304;-47
2023/05/23 03:23:50;;;;;;;7.20;5.60;;;;;;;10.23;81.27;100222.66;105571;1254;72770;-47
2023/05/23 03:26:20;;;;;;;10.00;5.60;;;;;;;10.26;81.40;100222.73;105680;1256;69942;-47
2023/05/23 03:28:50;;;;;;;9.20;5.50;;;;;;;10.29;81.45;100217.75;105373;1257;208101;-46
2023/05/23 03:31:19;;;;;;;7.50;5.90;;;;;;;10.34;81.36;100218.08;105642;1256;75039;-48
2023/05/23 03:33:48;;;;;;;10.60;5.70;;;;;;;10.38;81.89;100213.02;105720;1256;83301;-51
2023/05/23 03:36:17;;;;;;;8.00;5.50;;;;;;;10.43;82.03;100215.98;105659;1256;73492;-46
2023/05/23 03:38:45;;;;;;;7.20;5.00;;;;;;;10.49;82.16;100215.94;105676;1256;69965;-46
2023/05/23 03:41:14;;;;;;;8.60;5.70;;;;;;;10.53;82.26;100214.55;105572;1256;69922;-46
2023/05/23 03:43:44;;;;;;;6.60;5.30;;;;;;;10.56;82.24;100215.48;105624;1251;74508;-46
2023/05/23 03:46:13;;;;;;;8.40;5.70;;;;;;;10.60;82.65;100216.88;105710;1256;82470;-47
2023/05/23 03:48:42;;;;;;;13.20;5.70;;;;;;;10.65;82.76;100214.05;105641;1256;72743;-46
2023/05/23 03:51:12;;;;;;;7.00;5.90;;;;;;;10.70;82.91;100218.55;105558;1257;69970;-46
2023/05/23 03:53:41;;;;;;;6.80;5.70;;;;;;;10.77;83.04;100217.23;105582;1253;69843;-46
2023/05/23 03:56:09;;;;;;;9.50;6.60;;;;;;;10.84;82.80;100215.75;105696;1257;73865;-47
2023/05/23 03:58:38;;;;;;;9.00;6.30;;;;;;;10.89;82.53;100212.18;105599;1256;82607;-46
2023/05/23 04:01:09;;;;;;;8.10;5.90;;;;;;;10.95;82.74;100208.83;105593;1257;73752;-46
2023/05/23 04:03:38;;;;;;;8.80;6.10;;;;;;;11.02;82.90;100208.54;105593;1257;69991;-46
2023/05/23 04:06:07;;;;;;;9.20;6.60;;;;;;;11.09;82.88;100201.42;105609;1256;69883;-46
2023/05/23 04:08:40;;;;;;;12.40;6.50;;;;;;;11.16;82.65;100200.08;105598;1257;74886;-46
2023/05/23 04:11:09;;;;;;;7.30;6.30;;;;;;;11.22;82.88;100197.53;105649;1257;83401;-46
2023/05/23 04:13:41;;;;;;;10.40;6.30;;;;;;;11.29;82.89;100196.16;105555;1257;72759;-47
2023/05/23 04:16:11;;;;;;;8.40;6.50;;;;;;;11.37;82.90;100192.67;105656;1256;69979;-46
2023/05/23 04:18:39;;;;;;;8.30;6.10;;;;;;;11.45;82.88;100189.69;105546;1257;70654;-46
2023/05/23 04:21:08;;;;;;;9.50;6.50;;;;;;;11.52;82.82;100190.27;105666;1256;73197;-45
2023/05/23 04:23:43;;;;;;;9.00;6.30;;;;;;;11.61;82.76;100190.24;105612;1256;83176;-45
2023/05/23 04:26:12;;;;;;;9.70;6.00;;;;;;;11.69;82.93;100191.44;105581;1257;73929;-46
2023/05/23 04:28:53;;;;;;;7.60;6.20;;;;;;;11.79;83.02;100194.67;105621;1257;69978;-46
2023/05/23 04:31:21;;;;;;;7.70;6.20;;;;;;;11.89;82.66;100195.13;105601;1257;69912;-46
2023/05/23 04:33:50;;;;;;;8.70;6.10;;;;;;;11.99;82.43;100194.85;105555;1257;74305;-46
2023/05/23 04:36:22;;;;;;;8.70;6.00;;;;;;;12.11;82.05;100198.47;105622;1256;82493;-46
2023/05/23 04:38:54;;;;;;;10.00;6.20;;;;;;;12.26;81.56;100200.27;105625;1251;72757;-46
2023/05/23 04:41:23;;;;;;;9.30;6.40;;;;;;;12.39;81.07;100204.53;105656;1257;70001;-46
2023/05/23 04:43:53;;;;;;;9.00;5.60;;;;;;;12.55;80.79;100202.54;105629;1256;70023;-46
2023/05/23 04:46:35;;;;;;;8.70;5.90;;;;;;;12.72;80.46;100204.16;105620;1257;75035;-46
2023/05/23 04:49:11;;;;;;;7.70;6.00;;;;;;;12.85;80.01;100200.89;105650;1255;83963;-45
2023/05/23 04:51:40;;;;;;;9.20;5.80;;;;;;;12.97;80.18;100197.13;105643;1257;72502;-46
2023/05/23 04:54:36;;;;;;;10.90;6.70;;;;;;;13.13;80.35;100195.64;105618;1251;70659;-46
2023/05/23 04:57:05;;;;;;;6.90;6.00;;;;;;;13.26;80.05;100189.20;105638;1257;69892;-46
2023/05/23 04:59:34;;;;;;;8.40;6.00;;;;;;;13.37;79.51;100183.88;105794;1251;74577;-46
2023/05/23 05:02:04;;;;;;;9.90;6.20;;;;;;;13.47;78.98;100180.05;105670;1256;83616;-46
2023/05/23 05:04:32;;;;;;;8.90;5.90;;;;;;;13.54;78.37;100179.52;105738;1260;73854;-45
2023/05/23 05:07:03;;;;;;;7.40;5.60;;;;;;;13.62;78.12;100181.02;105672;1257;70025;-45
2023/05/23 05:09:31;;;;;;;6.90;5.70;;;;;;;13.71;77.78;100181.08;105627;1256;70299;-45
2023/05/23 05:12:00;;;;;;;7.30;5.90;;;;;;;13.83;77.51;100177.45;105605;1256;74940;-45
2023/05/23 05:14:29;;;;;;;8.50;5.90;;;;;;;13.93;77.32;100175.33;105690;1251;82503;-46
2023/05/23 05:16:58;;;;;;;7.70;6.70;;;;;;;14.01;77.02;100173.44;105688;1257;73784;-45
2023/05/23 05:19:33;;;;;;;10.70;6.10;;;;;;;14.11;76.91;100171.89;105649;1264;69908;-46
2023/05/23 05:22:02;;;;;;;7.00;5.90;;;;;;;14.17;76.37;100175.58;105662;1256;70198;-45
2023/05/23 05:24:31;;;;;;;9.10;6.30;;;;;;;14.23;75.98;100179.27;105688;1256;73062;-45
2023/05/23 05:27:00;;;;;;;7.20;6.20;;;;;;;14.31;75.59;100179.73;105797;1256;82909;-46
2023/05/23 05:29:28;;;;;;;7.60;5.90;;;;;;;14.38;75.42;100176.48;105730;1257;72644;-45
2023/05/23 05:31:56;;;;;;;8.80;5.80;;;;;;;14.48;75.51;100176.26;105591;1257;69803;-45
2023/05/23 05:34:25;;;;;;;9.30;5.60;;;;;;;14.57;75.30;100176.16;105599;1253;70570;-45
2023/05/23 05:36:55;;;;;;;6.50;5.10;;;;;;;14.62;74.69;100177.48;105762;1257;74306;-45
2023/05/23 05:39:25;;;;;;;7.70;5.70;;;;;;;14.69;74.68;100179.67;105703;1266;84214;-45
2023/05/23 05:41:55;;;;;;;8.20;5.60;;;;;;;14.76;74.69;100173.80;105815;1257;72258;-46
2023/05/23 05:44:23;;;;;;;9.00;5.70;;;;;;;14.83;74.54;100174.14;105681;1257;69919;-46
2023/05/23 05:46:52;;;;;;;11.00;5.80;;;;;;;14.91;74.35;100176.13;105636;1257;69951;-45
2023/05/23 05:49:21;;;;;;;9.70;6.30;;;;;;;15.00;74.44;100176.19;105591;1257;73842;-48
2023/05/23 05:51:50;;;;;;;7.00;6.20;;;;;;;15.05;74.28;100174.98;105673;1256;82366;-45
2023/05/23 05:54:18;;;;;;;8.30;5.70;;;;;;;15.12;74.20;100178.39;105685;1256;73753;-45
2023/05/23 05:56:47;;;;;;;9.20;6.20;;;;;;;15.19;73.69;100183.77;105634;1257;69960;-45
2023/05/23 05:59:16;;;;;;;6.40;5.60;;;;;;;15.29;73.50;100184.08;105616;1257;69911;-46
2023/05/23 06:01:44;;;;;;;7.20;6.00;;;;;;;15.42;72.85;100184.36;105747;1256;74344;-45
2023/05/23 06:04:13;;;;;;;11.90;6.40;;;;;;;15.50;72.48;100177.00;105717;1257;84629;-45
2023/05/23 06:06:42;;;;;;;12.50;6.40;;;;;;;15.60;72.42;100178.16;105755;1251;74170;-45
2023/05/23 06:09:11;;;;;;;8.50;6.30;;;;;;;15.70;72.46;100178.96;105737;1255;69938;-45
2023/05/23 06:11:39;;;;;;;9.60;5.90;;;;;;;15.85;72.47;100179.65;105563;1257;70155;-46
2023/05/23 06:14:08;;;;;;;8.10;5.80;;;;;;;16.02;72.31;100177.69;105603;1254;75040;-46
2023/05/23 06:16:39;;;;;;;10.90;5.70;;;;;;;16.17;72.12;100172.67;105651;1257;83487;-46
2023/05/23 06:19:08;;;;;;;7.80;5.50;;;;;;;16.28;72.02;100170.61;105735;1254;73430;-46
2023/05/23 06:21:37;;;;;;;10.00;6.00;;;;;;;16.35;71.95;100172.60;105579;1256;69944;-46
2023/05/23 06:24:07;;;;;;;8.60;6.20;;;;;;;16.43;71.55;100173.27;105615;1257;69980;-46
2023/05/23 06:26:36;;;;;;;8.00;5.50;;;;;;;16.53;71.21;100162.59;105671;1258;75021;-46
2023/05/23 06:29:04;;;;;;;7.20;6.10;;;;;;;16.63;70.93;100156.10;105769;1257;83654;-46
2023/05/23 06:31:34;;;;;;;7.00;5.80;;;;;;;16.75;70.60;100157.26;105632;1256;72855;-47
2023/05/23 06:34:05;;;;;;;9.60;6.20;;;;;;;16.86;70.21;100159.89;105666;1256;69803;-46
2023/05/23 06:36:34;;;;;;;8.70;6.00;;;;;;;16.96;69.98;100159.05;105637;1257;69996;-46
2023/05/23 06:39:02;;;;;;;8.90;5.90;;;;;;;17.08;69.86;100156.34;105535;1251;73803;-46
2023/05/23 06:41:30;;;;;;;7.20;5.80;;;;;;;17.19;69.56;100152.55;105647;1256;83287;-46
2023/05/23 06:43:58;;;;;;;10.90;6.30;;;;;;;17.29;69.05;100155.91;105618;1253;72713;-46
2023/05/23 06:46:30;;;;;;;7.30;5.90;;;;;;;17.35;67.96;100154.98;105657;1253;69968;-47
2023/05/23 06:48:59;;;;;;;7.10;5.90;;;;;;;17.37;67.42;100151.48;105733;1256;69954;-50
2023/05/23 06:51:42;;;;;;;7.70;5.50;;;;;;;17.40;66.94;100146.50;105668;1257;73944;-46
2023/05/23 06:54:11;;;;;;;9.70;6.30;;;;;;;17.49;67.11;100144.30;105679;1257;83467;-49
2023/05/23 06:56:39;;;;;;;8.30;6.50;;;;;;;17.63;66.97;100146.32;105657;1257;73558;-46
2023/05/23 06:59:08;;;;;;;9.20;6.10;;;;;;;17.74;66.91;100148.91;105579;1254;69887;-45
2023/05/23 07:01:37;;;;;;;12.70;6.60;;;;;;;17.86;66.37;100146.34;105546;1257;69980;-46
2023/05/23 07:04:05;;;;;;;7.70;5.60;;;;;;;17.96;66.34;100141.21;105611;1254;74774;-45
2023/05/23 07:06:35;;;;;;;10.20;6.60;;;;;;;18.09;66.01;100143.11;105665;1266;83196;-47
2023/05/23 07:09:03;;;;;;;7.90;6.30;;;;;;;18.18;65.51;100143.68;105634;1253;72594;-46
2023/05/23 07:11:34;;;;;;;16.00;6.80;;;;;;;18.26;65.19;100143.94;105617;1254;69801;-46
2023/05/23 07:14:02;;;;;;;10.50;6.40;;;;;;;18.35;64.92;100139.75;105684;1256;70322;-45
2023/05/23 07:16:36;;;;;;;9.90;6.40;;;;;;;18.44;64.82;100138.19;105721;1251;73795;-45
2023/05/23 07:19:06;;;;;;;;;;;;;;;18.56;64.64;100135.59;105594;1252;83379;-45
2023/05/23 07:21:41;;;;;;;7.60;6.30;;;;;;;18.70;64.65;100127.27;105704;1254;73362;-45
2023/05/23 07:24:09;;;;;;;9.90;6.70;;;;;;;18.83;64.69;100128.04;105604;1257;70001;-46
2023/05/23 07:26:38;;;;;;;11.60;6.40;;;;;;;18.91;64.29;100122.35;105703;1256;70069;-45
2023/05/23 07:29:06;;;;;;;8.90;6.00;;;;;;;19.03;64.09;100121.08;105535;1251;73996;-45
2023/05/23 07:31:35;;;;;;;7.40;6.40;;;;;;;19.13;63.66;100119.19;105651;1255;83498;-45
2023/05/23 07:34:03;;;;;;;9.90;6.70;;;;;;;19.21;63.03;100115.62;105667;1257;72711;-46
2023/05/23 07:36:39;;;;;;;12.20;6.30;;;;;;;19.28;62.46;100116.97;105646;1251;69953;-45
2023/05/23 07:39:10;;;;;;;9.90;6.50;;;;;;;19.36;62.11;100119.35;105988;1254;70008;-47
2023/05/23 07:41:39;;;;;;;8.70;5.70;;;;;;;19.46;61.86;100123.37;105657;1251;72984;-46
2023/05/23 07:44:08;;;;;;;10.90;6.20;;;;;;;19.59;61.58;100120.09;105734;1257;83135;-46
2023/05/23 07:46:37;;;;;;;12.20;6.80;;;;;;;19.71;61.04;100123.09;105632;1257;73887;-47
2023/05/23 07:49:06;;;;;;;11.70;6.40;;;;;;;19.80;60.70;100126.55;107804;1251;69897;-46
2023/05/23 07:51:35;;;;;;;9.70;5.90;;;;;;;19.92;60.44;100125.63;105747;1257;70021;-46
2023/05/23 07:54:03;;;;;;;8.70;5.70;;;;;;;20.02;60.04;100129.95;105850;1255;73997;-48
2023/05/23 07:56:32;;;;;;;9.70;6.90;;;;;;;20.11;59.86;100125.50;105591;1255;82274;-49
2023/05/23 07:59:01;;;;;;;9.10;6.20;;;;;;;20.20;59.55;100130.05;105528;1257;73785;-48
2023/05/23 08:01:30;;;;;;;8.50;6.40;;;;;;;20.30;58.78;100126.77;106130;1257;69988;-49
2023/05/23 08:04:02;;;;;;;8.30;6.00;;;;;;;20.37;58.27;100127.88;106288;1251;70665;-49
2023/05/23 08:06:48;;;;;;;13.60;5.60;;;;;;;20.44;57.70;100130.48;105716;1251;74633;-48
2023/05/23 08:09:43;;;;;;;9.70;5.60;;;;;;;20.54;57.51;100128.91;105575;1255;83238;-47
2023/05/23 08:12:14;;;;;;;8.00;5.70;;;;;;;20.63;57.68;100129.58;105509;1251;74044;-48
2023/05/23 08:14:43;;;;;;;6.90;5.70;;;;;;;20.65;57.36;100130.36;105574;1257;70040;-49
2023/05/23 08:17:42;;;;;;;8.70;5.80;;;;;;;20.63;57.21;100128.89;105674;1257;71591;-48
2023/05/23 08:20:11;;;;;;;9.60;5.80;;;;;;;20.62;57.20;100129.83;105656;1257;74870;-52
2023/05/23 08:22:40;;;;;;;10.00;5.50;;;;;;;20.57;56.76;100131.03;105706;1257;83525;-49
2023/05/23 08:25:09;;;;;;;7.40;6.00;;;;;;;20.53;56.87;100136.09;105629;1256;73811;-48
2023/05/23 08:27:40;;;;;;;12.50;6.30;;;;;;;20.42;56.92;100136.96;105562;1252;70026;-48
2023/05/23 08:30:22;;;;;;;8.50;6.10;;;;;;;20.28;57.26;100140.66;105613;1257;70055;-48
2023/05/23 08:32:52;;;;;;;9.80;5.50;;;;;;;20.17;57.37;100140.08;105687;1257;74938;-50
2023/05/23 08:35:21;;;;;;;8.50;5.90;;;;;;;20.00;57.40;100142.55;105648;1255;84562;-52
2023/05/23 08:37:50;;;;;;;8.60;6.10;;;;;;;19.81;57.70;100142.83;105664;1255;72796;-48
2023/05/23 08:40:21;;;;;;;8.60;6.10;;;;;;;19.68;57.97;100141.21;105692;1251;69948;-48
2023/05/23 08:42:57;;;;;;;12.70;6.30;;;;;;;19.59;58.58;100142.40;105679;1255;69902;-49
2023/05/23 08:45:28;;;;;;;8.70;6.20;;;;;;;19.54;59.24;100147.23;105690;1257;73308;-48
2023/05/23 08:47:59;;;;;;;12.40;7.40;;;;;;;19.46;59.72;100146.08;105752;1251;83480;-51
2023/05/23 08:50:29;;;;;;;9.70;6.30;;;;;;;19.39;60.89;100145.93;105631;1254;73658;-48
2023/05/23 08:52:58;;;;;;;9.70;6.50;;;;;;;19.31;62.00;100143.66;105723;1251;69864;-48
2023/05/23 08:55:28;;;;;;;11.90;7.00;;;;;;;19.27;62.93;100147.23;105609;1251;69940;-48
2023/05/23 08:58:02;;;;;;;11.50;5.80;;;;;;;19.15;63.83;100148.64;105666;1251;74769;-49
2023/05/23 09:00:38;;;;;;;8.80;5.60;;;;;;;19.03;64.45;100149.42;105611;1256;82561;-49
2023/05/23 09:03:08;;;;;;;7.20;6.00;;;;;;;18.96;64.86;100148.20;105512;1254;71822;-49
2023/05/23 09:05:46;;;;;;;9.30;6.80;;;;;;;18.84;65.35;100146.79;105618;1252;70116;-48
2023/05/23 09:08:15;;;;;;;9.70;7.10;;;;;;;18.76;65.98;100148.44;105699;1251;69999;-49
2023/05/23 09:10:44;;;;;;;8.80;6.90;;;;;;;18.68;66.43;100149.14;105677;1257;74895;-49
2023/05/23 09:13:14;;;;;;;11.30;7.70;;;;;;;18.64;66.90;100148.23;105581;1257;83563;-47
2023/05/23 09:16:09;;;;;;;8.60;7.50;;;;;;;18.63;67.56;100155.18;105633;1255;72732;-48
2023/05/23 09:18:43;;;;;;;9.30;6.40;;;;;;;18.68;68.41;100150.60;105701;1257;69891;-49
2023/05/23 09:21:13;;;;;;;10.20;6.90;;;;;;;18.75;68.17;100150.98;105576;1257;69994;-47
2023/05/23 09:24:04;;;;;;;12.50;8.60;;;;;;;18.79;68.27;100150.52;105628;1251;74740;-48
2023/05/23 09:26:33;;;;;;;12.20;8.10;;;;;;;18.85;68.55;100146.02;105592;1251;83243;-48
2023/05/23 09:29:04;;;;;;;9.30;7.90;;;;;;;18.93;68.49;100148.94;105610;1256;72742;-48
2023/05/23 09:31:33;;;;;;;11.30;8.70;;;;;;;19.06;68.78;100147.76;105658;1256;69969;-47
2023/05/23 09:34:02;;;;;;;14.90;9.30;;;;;;;19.18;68.64;100148.08;105676;1251;69973;-48
2023/05/23 09:36:35;;;;;;;18.00;9.70;;;;;;;19.28;68.38;100150.44;105703;1256;74830;-48
2023/05/23 09:39:07;;;;;;;14.90;10.50;;;;;;;19.39;68.38;100151.95;105650;1256;82993;-48
2023/05/23 09:41:35;;;;;;;16.20;10.30;;;;;;;19.45;67.92;100149.73;105655;1251;72729;-49
2023/05/23 09:44:07;;;;;;;10.80;9.00;;;;;;;19.52;67.94;100148.65;105658;1251;69970;-48
2023/05/23 09:46:39;;;;;;;14.40;8.90;;;;;;;19.57;67.65;100151.91;105575;1257;69998;-48
2023/05/23 09:49:16;;;;;;;14.00;8.80;;;;;;;19.61;67.52;100155.90;105638;1256;73942;-48
2023/05/23 09:52:00;;;;;;;14.10;8.60;;;;;;;19.66;67.53;100157.98;105582;1257;83498;-48
2023/05/23 09:54:28;;;;;;;12.10;8.70;;;;;;;19.72;67.44;100166.59;105591;1251;72775;-48
2023/05/23 09:56:59;;;;;;;8.80;7.90;;;;;;;19.73;67.48;100164.56;105688;1251;69984;-48
2023/05/23 09:59:31;;;;;;;11.30;8.40;;;;;;;19.75;68.25;100161.92;105659;1251;70026;-47
2023/05/23 10:02:02;;;;;;;11.90;8.40;;;;;;;19.71;68.68;100162.58;105599;1257;73894;-47
2023/05/23 10:04:33;;;;;;;11.00;8.60;;;;;;;19.66;68.73;100162.77;105593;1251;82524;-48
2023/05/23 10:07:14;;;;;;;10.40;8.20;;;;;;;19.62;69.16;100160.27;105563;1254;73545;-48
2023/05/23 10:09:47;;;;;;;11.70;8.00;;;;;;;19.59;69.22;100164.00;105637;1251;70034;-48
2023/05/23 10:12:37;;;;;;;13.40;8.70;;;;;;;19.55;68.84;100159.89;105705;1251;69870;-47
2023/05/23 10:15:06;;;;;;;;;;;;;;;19.42;67.84;100162.54;105640;1256;75313;-48
2023/05/23 10:18:01;;;;;;;10.80;8.40;;;;;;;19.28;67.47;100162.52;105608;1254;83493;-49
2023/05/23 10:20:30;;;;;;;9.20;8.30;;;;;;;19.12;67.59;100159.13;105585;1251;73736;-49
2023/05/23 10:23:00;;;;;;;10.90;8.90;;;;;;;19.06;67.75;100159.09;105632;1256;70449;-49
2023/05/23 10:25:28;;;;;;;11.00;8.50;;;;;;;19.00;67.79;100157.96;105567;1254;70376;-48
2023/05/23 10:27:58;;;;;;;9.40;8.40;;;;;;;18.92;67.97;100161.89;105591;1256;74394;-48
2023/05/23 10:30:31;;;;;;;9.60;7.90;;;;;;;18.86;68.30;100159.56;105669;1256;83503;-48
2023/05/23 10:32:59;;;;;;;10.40;8.10;;;;;;;18.79;68.48;100155.48;105576;1256;73729;-48
2023/05/23 10:35:46;;;;;;;11.00;8.40;;;;;;;18.72;68.61;100150.47;105628;1255;69826;-48
2023/05/23 10:38:20;;;;;;;14.80;9.10;;;;;;;18.65;68.33;100157.73;105588;1256;69981;-48
2023/05/23 10:41:02;;;;;;;10.40;8.50;;;;;;;18.61;68.26;100154.31;105563;1256;74926;-49
2023/05/23 10:43:38;;;;;;;11.60;8.60;;;;;;;18.55;68.37;100156.33;105544;1254;83020;-48
2023/05/23 10:46:08;;;;;;;9.80;8.30;;;;;;;18.55;68.33;100154.25;105524;1257;73856;-49
2023/05/23 10:48:43;;;;;;;10.80;7.60;;;;;;;18.55;68.43;100153.33;105624;1251;70460;-49
2023/05/23 10:51:15;;;;;;;10.70;7.90;;;;;;;18.61;68.69;100155.92;105549;1257;69925;-48
2023/05/23 10:53:45;;;;;;;10.80;8.70;;;;;;;18.68;68.64;100160.67;105570;1254;73923;-47
2023/05/23 10:56:22;;;;;;;11.10;8.10;;;;;;;18.76;68.34;100159.25;105596;1255;83444;-50
2023/05/23 10:58:54;;;;;;;11.10;9.40;;;;;;;18.87;68.71;100159.95;105592;1257;73858;-47
2023/05/23 11:01:23;;;;;;;12.10;9.70;;;;;;;19.04;68.78;100160.84;105630;1256;70322;-48
2023/05/23 11:03:52;;;;;;;11.60;9.20;;;;;;;19.15;68.75;100164.20;105677;1256;69912;-49
2023/05/23 11:06:44;;;;;;;13.20;9.40;;;;;;;19.29;68.61;100166.70;105664;1251;73707;-48
2023/05/23 11:09:18;;;;;;;13.80;9.60;;;;;;;19.35;67.71;100167.84;105646;1253;81807;-47
2023/05/23 11:11:52;;;;;;;10.30;9.10;;;;;;;19.36;67.59;100164.72;105617;1257;73636;-48
2023/05/23 11:14:30;;;;;;;11.90;9.50;;;;;;;19.39;67.38;100164.50;105711;1251;69816;-47
2023/05/23 11:17:00;;;;;;;11.90;9.10;;;;;;;19.44;67.27;100166.27;105655;1257;70578;-46
2023/05/23 11:19:28;;;;;;;14.00;9.60;;;;;;;19.49;67.21;100168.84;105671;1254;74756;-47
2023/05/23 11:22:01;;;;;;;18.30;10.50;;;;;;;19.47;66.76;100172.39;105625;1256;83497;-47
2023/05/23 11:24:51;;;;;;;12.40;9.80;;;;;;;19.39;66.67;100171.62;105639;1256;73088;-47
2023/05/23 11:27:36;;;;;;;13.60;10.30;;;;;;;19.24;66.70;100168.30;105592;1257;70513;-47
2023/05/23 11:30:09;;;;;;;12.30;9.30;;;;;;;19.13;66.85;100165.43;105665;1257;71521;-46
2023/05/23 11:32:38;;;;;;;11.60;9.30;;;;;;;19.11;67.09;100162.99;105636;1251;73994;-48